WHISKEYTOWN DAM (USBR) (WHI)

Elevation: 1210' · SACRAMENTO R basin · Operator: US Bureau of Reclamation

Provisional data, subject to change.
Query executed Sunday at 4:33:31   clock

Select a sensor type for a plot of data.
Note: Reservoir Flows are daily averages.

Earlier

Date RES ELE    STORAGE    RES CHG    OUTFLOW    INFLOW    EVAP    RIV REL    PPT INC    RAIN    SPILL    DIS PWR   
 FEET   AF   AF   CFS   CFS   CFS   CFS   INCHES   INCHES   CFS   CFS  
01/15/2016 1198.57 205888 -560 888 606 0 203 1.12 23.79 0 685
01/16/2016 1198.77 206477 589 410 707 0 203 0.84 24.63 0 207
01/17/2016 1199.65 209086 2609 936 2251 0 203 0.98 25.61 0 733
01/18/2016 1200.55 211772 2686 995 2349 0 203 --A 25.61 0 792
01/19/2016 1202.37 217260 5488 906 3673 0 203 5.17 A 30.78 0 703
01/20/2016 1202.33 217139 -121 2161 2100 0 201 1.51 32.29 0 1960
01/21/2016 1201.41 214356 -2783 2670 1269 2 203 0.02 32.31 0 2467
01/22/2016 1201.82 215593 1237 1528 2152 0 203 1.35 33.66 0 1325
01/23/2016 1202.77 218476 2883 1509 2962 0 203 1.42 35.08 0 1306
01/24/2016 1203.37 220308 1832 956 1880 0 203 0.02 35.10 0 753
01/25/2016 1203.02 219236 -1072 1843 1303 0 203 0.37 35.47 0 1640
01/26/2016 1202.64 218081 -1155 1565 985 2 203 0.02 r 35.49 0 1362
01/27/2016 1201.70 215231 -2850 2250 816 3 203 0.03 r 35.52 0 2047
01/28/2016 1200.85 212670 -2561 2107 817 1 204 0.03 35.55 0 1903
01/29/2016 1201.20 213722 1052 1604 2134 0 203 1.69 37.24 0 1401
01/30/2016 1200.78 212460 -1262 2347 1711 0 203 0.31 37.55 0 2144
01/31/2016 1200.02 210185 -2275 2315 1168 0 203 0.00 37.55 0 2112
02/01/2016 1199.36 208224 -1961 1911 922 0 203 0.00 37.55 0 1708
02/02/2016 1198.73 206360 -1864 1683 743 0 203 0.06 37.61 0 1480
02/03/2016 1198.31 205122 -1238 1350 726 0 203 0.01 37.62 0 1147
02/04/2016 1198.42 205446 324 347 510 0 203 0.20 37.82 0 144
02/05/2016 1198.55 205829 383 219 419 7 203 0.00 37.82 0 16
02/06/2016 1198.69 206242 413 217 427 2 203 0.00 37.82 0 14
02/07/2016 1198.80 206566 324 217 382 2 203 0.00 37.82 0 14
02/08/2016 1198.88 206801 235 217 342 7 203 0.00 37.82 0 14
02/09/2016 1198.96 207037 236 222 345 4 203 0.00 37.82 0 19
02/10/2016 1198.72 206330 -707 717 367 6 203 0.00 37.82 0 514
02/11/2016 1198.31 205122 -1208 934 328 3 203 0.00 37.82 0 731
02/12/2016 1198.50 205682 560 551 835 2 203 0.00 37.82 0 348
02/13/2016 -- -- -- -- -- -- -- -- -- -- --
02/14/2016 -- -- -- -- -- -- -- -- -- -- --

Later | Latest

Warning! This data is preliminary and subject to revision.

Show WHI Map | Plot WHI Data | 1 Month WHI Data | Real-Time WHI Data | WHI Info